createdAt,value
2022-10-12T00:00:47.024Z,5.00
2022-10-12T00:03:14.907Z,5.10
2022-10-12T00:05:42.889Z,5.40
2022-10-12T00:08:10.817Z,4.50
2022-10-12T00:10:42.039Z,4.70
2022-10-12T00:13:10.108Z,5.60
2022-10-12T00:15:39.031Z,5.50
2022-10-12T00:18:09.053Z,4.70
2022-10-12T00:20:36.970Z,5.00
2022-10-12T00:23:05.044Z,5.80
2022-10-12T00:25:32.913Z,4.50
2022-10-12T00:28:00.788Z,4.80
2022-10-12T00:30:28.729Z,4.90
2022-10-12T00:32:57.505Z,4.90
2022-10-12T00:35:29.128Z,4.70
2022-10-12T00:37:57.430Z,4.70
2022-10-12T00:40:25.462Z,4.55
2022-10-12T00:42:53.387Z,4.70
2022-10-12T00:45:21.385Z,4.30
2022-10-12T00:47:52.855Z,4.20
2022-10-12T00:50:25.651Z,4.18
2022-10-12T00:53:00.496Z,4.30
2022-10-12T00:55:31.796Z,3.90
2022-10-12T00:58:00.723Z,4.40
2022-10-12T01:00:28.681Z,4.20
2022-10-12T01:02:56.773Z,4.30
2022-10-12T01:05:25.044Z,3.60
2022-10-12T01:07:54.327Z,3.65
2022-10-12T01:10:22.398Z,4.05
2022-10-12T01:12:51.016Z,3.92
2022-10-12T01:15:19.320Z,3.50
2022-10-12T01:18:00.411Z,3.58
2022-10-12T01:20:45.502Z,3.65
2022-10-12T01:23:43.126Z,3.70
2022-10-12T01:26:58.222Z,4.10
2022-10-12T01:29:55.136Z,3.53
2022-10-12T01:32:30.409Z,3.23
2022-10-12T01:35:04.090Z,3.03
2022-10-12T01:37:40.464Z,3.23
2022-10-12T01:40:16.077Z,3.30
2022-10-12T01:42:45.443Z,3.10
2022-10-12T01:45:16.504Z,3.08
2022-10-12T01:47:49.398Z,3.55
2022-10-12T01:50:18.801Z,3.30
2022-10-12T01:52:54.509Z,3.00
2022-10-12T01:55:31.437Z,3.00
2022-10-12T01:58:27.258Z,2.63
2022-10-12T02:01:03.886Z,3.40
2022-10-12T02:03:39.016Z,3.20
2022-10-12T02:06:10.110Z,3.33
2022-10-12T02:08:43.279Z,3.05
2022-10-12T02:11:13.773Z,3.15
2022-10-12T02:13:44.986Z,3.33
2022-10-12T02:16:15.738Z,3.10
2022-10-12T02:18:48.707Z,2.87
2022-10-12T02:21:21.667Z,3.25
2022-10-12T02:23:51.229Z,3.00
2022-10-12T02:26:20.529Z,2.80
2022-10-12T02:28:50.641Z,3.50
2022-10-12T02:31:25.662Z,3.00
2022-10-12T02:34:01.273Z,3.20
2022-10-12T02:36:37.015Z,2.95
2022-10-12T02:39:10.509Z,3.70
2022-10-12T02:41:43.273Z,3.17
2022-10-12T02:44:14.755Z,3.25
2022-10-12T02:46:43.397Z,3.20
2022-10-12T02:49:14.178Z,2.80
2022-10-12T02:51:43.388Z,2.90
2022-10-12T02:54:11.845Z,2.73
2022-10-12T02:56:45.333Z,2.95
2022-10-12T02:59:13.581Z,2.90
2022-10-12T03:01:41.780Z,3.20
2022-10-12T03:04:09.797Z,2.90
2022-10-12T03:06:39.107Z,2.90
2022-10-12T03:09:07.385Z,2.90
2022-10-12T03:11:35.398Z,3.40
2022-10-12T03:14:03.312Z,3.00
2022-10-12T03:16:31.261Z,3.00
2022-10-12T03:19:00.001Z,2.80
2022-10-12T03:21:27.907Z,2.80
2022-10-12T03:23:57.279Z,3.00
2022-10-12T03:26:25.176Z,2.78
2022-10-12T03:28:53.128Z,2.70
2022-10-12T03:31:21.107Z,2.78
2022-10-12T03:33:49.013Z,2.67
2022-10-12T03:36:17.051Z,2.60
2022-10-12T03:38:44.926Z,2.45
2022-10-12T03:41:14.323Z,2.78
2022-10-12T03:43:42.274Z,3.20
2022-10-12T03:46:10.177Z,2.60
2022-10-12T03:48:38.111Z,2.80
2022-10-12T03:51:06.345Z,2.97
2022-10-12T03:53:34.341Z,3.38
2022-10-12T03:56:02.229Z,2.92
2022-10-12T03:58:31.572Z,2.80
2022-10-12T04:00:59.503Z,2.78
2022-10-12T04:03:27.455Z,3.30
2022-10-12T04:05:55.858Z,2.70
2022-10-12T04:08:23.966Z,3.10
2022-10-12T04:10:52.003Z,3.15
2022-10-12T04:13:20.879Z,3.20
2022-10-12T04:15:50.121Z,3.40
2022-10-12T04:18:18.008Z,2.80
2022-10-12T04:20:48.966Z,2.97
2022-10-12T04:23:16.986Z,3.40
2022-10-12T04:25:44.903Z,3.13
2022-10-12T04:28:12.918Z,3.50
2022-10-12T04:30:41.138Z,3.72
2022-10-12T04:33:10.414Z,3.22
2022-10-12T04:35:38.313Z,3.35
2022-10-12T04:38:07.495Z,3.10
2022-10-12T04:40:35.434Z,3.08
2022-10-12T04:43:03.355Z,3.55
2022-10-12T04:45:31.444Z,3.40
2022-10-12T04:47:59.376Z,3.50
2022-10-12T04:50:30.175Z,3.50
2022-10-12T04:52:58.497Z,3.20
2022-10-12T04:55:26.504Z,3.88
2022-10-12T04:57:54.456Z,3.37
2022-10-12T05:00:22.524Z,3.60
2022-10-12T05:02:50.732Z,3.43
2022-10-12T05:05:18.721Z,3.97
2022-10-12T05:07:47.943Z,4.35
2022-10-12T05:10:15.910Z,3.75
2022-10-12T05:12:43.808Z,4.53
2022-10-12T05:15:12.194Z,4.00
2022-10-12T05:17:40.277Z,4.70
2022-10-12T05:20:10.145Z,3.80
2022-10-12T05:22:38.060Z,3.95
2022-10-12T05:25:08.801Z,4.57
2022-10-12T05:27:36.930Z,4.07
2022-10-12T05:30:05.764Z,4.30
2022-10-12T05:32:33.709Z,4.13
2022-10-12T05:35:01.741Z,4.13
2022-10-12T05:37:29.729Z,4.50
2022-10-12T05:39:57.598Z,4.23
2022-10-12T05:42:26.846Z,4.40
2022-10-12T05:44:54.762Z,3.88
2022-10-12T05:47:22.656Z,4.70
2022-10-12T05:49:50.606Z,4.90
2022-10-12T05:52:18.526Z,4.22
2022-10-12T05:54:46.435Z,4.40
2022-10-12T05:57:15.377Z,4.57
2022-10-12T05:59:44.654Z,4.40
2022-10-12T06:02:15.752Z,3.92
2022-10-12T06:04:44.130Z,3.83
2022-10-12T06:07:12.046Z,4.50
2022-10-12T06:09:40.095Z,5.05
2022-10-12T06:12:08.631Z,4.30
2022-10-12T06:14:36.505Z,4.47
2022-10-12T06:17:05.813Z,4.05
2022-10-12T06:19:33.764Z,4.22
2022-10-12T06:22:01.700Z,4.20
2022-10-12T06:24:29.592Z,4.25
2022-10-12T06:26:57.660Z,4.35
2022-10-12T06:29:25.637Z,4.70
2022-10-12T06:31:54.214Z,4.47
2022-10-12T06:34:23.492Z,5.00
2022-10-12T06:36:52.256Z,5.03
2022-10-12T06:39:20.120Z,5.68
2022-10-12T06:41:48.067Z,5.80
2022-10-12T06:44:16.043Z,5.70
2022-10-12T06:46:43.947Z,4.90
2022-10-12T06:49:11.918Z,5.18
2022-10-12T06:51:41.254Z,5.88
2022-10-12T06:54:09.193Z,5.57
2022-10-12T06:56:38.149Z,5.40
2022-10-12T06:59:06.181Z,5.40
2022-10-12T07:01:34.142Z,5.60
2022-10-12T07:04:02.179Z,4.90
2022-10-12T07:06:30.131Z,6.10
2022-10-12T07:08:59.392Z,5.93
2022-10-12T07:11:27.395Z,6.03
2022-10-12T07:13:55.315Z,6.00
2022-10-12T07:16:23.281Z,6.20
2022-10-12T07:18:51.199Z,6.03
2022-10-12T07:21:19.173Z,6.60
2022-10-12T07:23:47.043Z,6.15
2022-10-12T07:26:16.302Z,6.30
2022-10-12T07:28:44.262Z,6.40
2022-10-12T07:31:12.681Z,7.40
2022-10-12T07:33:40.555Z,6.50
2022-10-12T07:36:21.237Z,7.80
2022-10-12T07:38:50.167Z,7.35
2022-10-12T07:41:20.177Z,7.03
2022-10-12T07:43:48.166Z,7.70
2022-10-12T07:46:16.168Z,6.95
2022-10-12T07:48:49.843Z,7.22
2022-10-12T07:51:18.437Z,7.10
2022-10-12T07:53:46.990Z,7.88
2022-10-12T07:56:16.131Z,7.68
2022-10-12T07:58:50.024Z,8.60
2022-10-12T08:01:18.784Z,7.45
2022-10-12T08:03:46.876Z,7.35
2022-10-12T08:06:17.180Z,8.38
2022-10-12T08:08:45.669Z,7.20
2022-10-12T08:11:14.796Z,7.50
2022-10-12T08:13:43.345Z,6.97
2022-10-12T08:16:15.108Z,8.40
2022-10-12T08:18:43.045Z,7.68
2022-10-12T08:21:12.330Z,8.07
2022-10-12T08:23:40.418Z,8.13
2022-10-12T08:26:08.780Z,7.70
2022-10-12T08:28:37.160Z,7.95
2022-10-12T08:31:08.389Z,8.05
2022-10-12T08:33:37.931Z,8.50
2022-10-12T08:36:07.205Z,9.18
2022-10-12T08:38:38.513Z,8.90
2022-10-12T08:41:20.192Z,8.80
2022-10-12T08:44:00.504Z,8.75
2022-10-12T08:46:29.438Z,8.80
2022-10-12T08:49:02.360Z,8.60
2022-10-12T08:51:32.514Z,8.73
2022-10-12T08:54:04.751Z,7.82
2022-10-12T08:56:34.808Z,8.93
2022-10-12T08:59:03.486Z,7.63
2022-10-12T09:01:37.355Z,8.52
2022-10-12T09:04:34.335Z,7.47
2022-10-12T09:07:09.273Z,8.40
2022-10-12T09:09:47.558Z,8.20
2022-10-12T09:12:41.402Z,8.50
2022-10-12T09:15:16.262Z,9.25
2022-10-12T09:17:48.441Z,8.52
2022-10-12T09:20:21.172Z,8.27
2022-10-12T09:22:51.094Z,7.90
2022-10-12T09:25:22.581Z,8.27
2022-10-12T09:27:50.553Z,7.70
2022-10-12T09:30:20.381Z,7.78
2022-10-12T09:33:05.131Z,8.55
2022-10-12T09:35:35.191Z,8.50
2022-10-12T09:38:03.641Z,7.85
2022-10-12T09:40:33.207Z,7.80
2022-10-12T09:43:03.077Z,7.90
2022-10-12T09:45:34.088Z,7.68
2022-10-12T09:48:14.064Z,8.57
2022-10-12T09:50:46.684Z,7.80
2022-10-12T09:53:28.414Z,8.30
2022-10-12T09:56:00.999Z,8.98
2022-10-12T09:58:30.075Z,8.38
2022-10-12T10:01:29.334Z,8.10
2022-10-12T10:04:16.762Z,8.68
2022-10-12T10:06:47.890Z,8.60
2022-10-12T10:09:32.093Z,8.25
2022-10-12T10:12:14.039Z,8.50
2022-10-12T10:14:44.897Z,8.60
2022-10-12T10:17:16.637Z,8.65
2022-10-12T10:19:51.310Z,9.37
2022-10-12T10:22:21.494Z,9.33
2022-10-12T10:24:57.680Z,8.60
2022-10-12T10:27:34.692Z,8.90
2022-10-12T10:30:40.712Z,8.88
2022-10-12T10:33:15.955Z,9.10
2022-10-12T10:35:58.070Z,7.60
2022-10-12T10:38:28.153Z,7.65
2022-10-12T10:40:57.534Z,8.48
2022-10-12T10:43:28.981Z,8.85
2022-10-12T10:46:00.926Z,7.77
2022-10-12T10:48:31.845Z,7.72
2022-10-12T10:51:02.197Z,7.50
2022-10-12T10:53:43.658Z,7.90
2022-10-12T10:56:15.362Z,7.05
2022-10-12T10:58:46.401Z,8.02
2022-10-12T11:01:21.573Z,7.28
2022-10-12T11:03:59.107Z,8.00
2022-10-12T11:06:37.269Z,7.85
2022-10-12T11:09:12.892Z,6.20
2022-10-12T11:11:43.806Z,6.15
2022-10-12T11:14:17.215Z,5.97
2022-10-12T11:16:51.708Z,5.60
2022-10-12T11:19:27.634Z,5.38
2022-10-12T11:22:00.416Z,5.10
2022-10-12T11:24:34.473Z,4.93
2022-10-12T11:27:08.498Z,5.43
2022-10-12T11:29:38.378Z,5.93
2022-10-12T11:32:14.924Z,5.10
2022-10-12T11:34:50.595Z,5.40
2022-10-12T11:37:22.089Z,5.60
2022-10-12T11:39:53.791Z,5.90
2022-10-12T11:42:30.623Z,6.07
2022-10-12T11:45:00.652Z,6.30
2022-10-12T11:47:37.127Z,6.40
2022-10-12T11:50:07.710Z,6.38
2022-10-12T11:52:41.813Z,6.13
2022-10-12T11:55:32.850Z,6.65
2022-10-12T11:58:13.132Z,6.63
2022-10-12T12:00:52.023Z,6.78
2022-10-12T12:03:27.225Z,6.87
2022-10-12T12:05:55.173Z,6.85
2022-10-12T12:08:24.737Z,7.03
2022-10-12T12:11:05.284Z,6.60
2022-10-12T12:13:33.295Z,6.90
2022-10-12T12:16:35.175Z,8.32
2022-10-12T12:19:37.433Z,8.65
2022-10-12T12:22:20.152Z,9.43
2022-10-12T12:25:05.427Z,10.98
2022-10-12T12:27:38.711Z,10.48
2022-10-12T12:30:25.476Z,10.18
2022-10-12T12:32:56.452Z,10.00
2022-10-12T12:35:28.709Z,9.50
2022-10-12T12:38:19.408Z,11.15
2022-10-12T12:41:00.530Z,11.30
2022-10-12T12:43:56.192Z,10.05
2022-10-12T12:46:26.439Z,10.82
2022-10-12T12:49:02.400Z,10.10
2022-10-12T12:51:40.863Z,9.77
2022-10-12T12:54:22.082Z,9.70
2022-10-12T12:57:11.284Z,9.80
2022-10-12T13:00:04.100Z,9.70
2022-10-12T13:03:03.097Z,8.60
2022-10-12T13:06:16.204Z,9.20
2022-10-12T13:09:19.339Z,9.60
2022-10-12T13:12:03.403Z,9.40
2022-10-12T13:14:52.460Z,9.27
2022-10-12T13:17:40.943Z,10.10
2022-10-12T13:20:18.058Z,10.10
2022-10-12T13:22:47.917Z,10.30
2022-10-12T13:25:25.592Z,10.68
2022-10-12T13:27:54.953Z,9.90
2022-10-12T13:30:30.926Z,10.15
2022-10-12T13:33:07.602Z,11.30
2022-10-12T13:35:39.418Z,10.35
2022-10-12T13:38:20.623Z,10.60
2022-10-12T13:40:58.868Z,11.93
2022-10-12T13:43:44.898Z,10.50
2022-10-12T13:46:14.181Z,10.98
2022-10-12T13:49:05.488Z,10.30
2022-10-12T13:51:34.780Z,10.90
2022-10-12T13:54:04.061Z,9.88
2022-10-12T13:56:32.336Z,10.23
2022-10-12T13:59:05.461Z,11.10
2022-10-12T14:01:49.369Z,10.30
2022-10-12T14:04:18.650Z,9.35
2022-10-12T14:06:56.111Z,9.35
2022-10-12T14:09:26.477Z,9.60
2022-10-12T14:11:56.603Z,10.13
2022-10-12T14:14:32.449Z,9.52
2022-10-12T14:17:00.635Z,9.50
2022-10-12T14:19:44.936Z,9.50
2022-10-12T14:22:14.199Z,8.82
2022-10-12T14:24:42.256Z,8.88
2022-10-12T14:27:20.891Z,8.55
2022-10-12T14:29:49.338Z,8.80
2022-10-12T14:32:40.948Z,8.60
2022-10-12T14:35:31.520Z,8.02
2022-10-12T14:37:59.415Z,8.15
2022-10-12T14:40:38.410Z,8.35
2022-10-12T14:43:09.432Z,7.85
2022-10-12T14:45:37.604Z,7.40
2022-10-12T14:48:09.983Z,7.60
2022-10-12T14:50:39.241Z,6.97
2022-10-12T14:53:12.397Z,6.63
2022-10-12T14:55:41.396Z,6.97
2022-10-12T14:58:13.278Z,6.90
2022-10-12T15:00:41.249Z,7.10
2022-10-12T15:03:09.265Z,6.13
2022-10-12T15:05:37.247Z,6.40
2022-10-12T15:08:09.044Z,6.35
2022-10-12T15:10:38.091Z,6.15
2022-10-12T15:13:06.129Z,6.28
2022-10-12T15:15:39.101Z,6.20
2022-10-12T15:18:07.377Z,5.55
2022-10-12T15:20:36.352Z,5.72
2022-10-12T15:23:06.291Z,5.72
2022-10-12T15:25:40.860Z,5.65
2022-10-12T15:28:08.781Z,6.30
2022-10-12T15:30:52.227Z,6.00
2022-10-12T15:33:25.115Z,5.28
2022-10-12T15:35:53.081Z,6.80
2022-10-12T15:38:22.492Z,6.30
2022-10-12T15:40:51.806Z,5.83
2022-10-12T15:43:20.469Z,7.07
2022-10-12T15:45:48.382Z,5.68
2022-10-12T15:48:16.273Z,5.80
2022-10-12T15:50:45.962Z,6.28
2022-10-12T15:53:16.671Z,5.97
2022-10-12T15:55:45.938Z,7.13
2022-10-12T15:58:13.916Z,6.68
2022-10-12T16:00:41.879Z,6.05
2022-10-12T16:03:15.884Z,6.38
2022-10-12T16:05:44.010Z,6.10
2022-10-12T16:08:11.945Z,6.97
2022-10-12T16:10:42.128Z,7.35
2022-10-12T16:13:14.356Z,7.00
2022-10-12T16:15:43.533Z,7.20
2022-10-12T16:18:15.304Z,8.18
2022-10-12T16:20:49.775Z,7.50
2022-10-12T16:23:27.032Z,8.40
2022-10-12T16:25:55.105Z,8.10
2022-10-12T16:28:25.484Z,8.10
2022-10-12T16:30:54.142Z,7.85
2022-10-12T16:33:22.134Z,7.13
2022-10-12T16:35:50.047Z,7.32
2022-10-12T16:38:19.910Z,8.38
2022-10-12T16:40:49.963Z,7.50
2022-10-12T16:43:17.978Z,7.50
2022-10-12T16:45:55.212Z,7.28
2022-10-12T16:48:23.131Z,7.70
2022-10-12T16:50:51.046Z,7.40
2022-10-12T16:53:18.943Z,7.20
2022-10-12T16:55:48.958Z,7.30
2022-10-12T16:58:16.878Z,7.38
2022-10-12T17:00:44.828Z,7.38
2022-10-12T17:03:14.361Z,7.60
2022-10-12T17:05:42.937Z,7.45
2022-10-12T17:08:15.122Z,7.30
2022-10-12T17:10:44.195Z,7.00
2022-10-12T17:13:13.413Z,7.40
2022-10-12T17:15:42.644Z,7.28
2022-10-12T17:18:10.802Z,6.93
2022-10-12T17:20:40.113Z,7.70
2022-10-12T17:23:09.380Z,7.47
2022-10-12T17:25:37.323Z,6.95
2022-10-12T17:28:05.417Z,7.22
2022-10-12T17:30:33.349Z,6.63
2022-10-12T17:33:01.255Z,7.00
2022-10-12T17:35:29.166Z,7.00
2022-10-12T17:37:58.422Z,7.50
2022-10-12T17:40:26.329Z,6.72
2022-10-12T17:42:54.670Z,7.18
2022-10-12T17:45:22.597Z,7.20
2022-10-12T17:47:50.513Z,7.00
2022-10-12T17:50:18.621Z,7.07
2022-10-12T17:52:46.698Z,6.82
2022-10-12T17:55:36.087Z,6.90
2022-10-12T17:58:04.355Z,7.60
2022-10-12T18:00:32.641Z,7.30
2022-10-12T18:03:00.567Z,7.30
2022-10-12T18:05:29.140Z,6.95
2022-10-12T18:07:57.037Z,6.68
2022-10-12T18:10:28.479Z,6.82
2022-10-12T18:12:56.864Z,7.90
2022-10-12T18:15:24.789Z,8.15
2022-10-12T18:17:54.703Z,7.10
2022-10-12T18:20:22.782Z,7.82
2022-10-12T18:22:50.681Z,8.40
2022-10-12T18:25:18.636Z,7.40
2022-10-12T18:27:50.171Z,6.60
2022-10-12T18:30:18.239Z,8.07
2022-10-12T18:32:46.198Z,8.20
2022-10-12T18:35:14.091Z,7.47
2022-10-12T18:37:42.032Z,8.23
2022-10-12T18:40:11.675Z,7.30
2022-10-12T18:42:39.685Z,8.30
2022-10-12T18:45:09.696Z,8.70
2022-10-12T18:47:37.828Z,8.27
2022-10-12T18:50:07.057Z,9.02
2022-10-12T18:52:35.667Z,7.50
2022-10-12T18:55:03.596Z,8.18
2022-10-12T18:57:34.351Z,9.02
2022-10-12T19:00:05.850Z,8.90
2022-10-12T19:02:36.668Z,8.55
2022-10-12T19:05:05.413Z,8.02
2022-10-12T19:07:35.220Z,8.65
2022-10-12T19:10:04.355Z,8.23
2022-10-12T19:12:32.253Z,8.30
2022-10-12T19:15:00.241Z,9.87
2022-10-12T19:17:28.230Z,8.88
2022-10-12T19:19:58.725Z,8.90
2022-10-12T19:22:26.787Z,11.07
2022-10-12T19:24:54.985Z,11.43
2022-10-12T19:27:22.889Z,12.20
2022-10-12T19:29:51.025Z,11.82
2022-10-12T19:32:19.202Z,11.48
2022-10-12T19:34:47.359Z,12.10
2022-10-12T19:37:16.622Z,10.75
2022-10-12T19:39:46.845Z,10.93
2022-10-12T19:42:14.775Z,10.93
2022-10-12T19:44:42.934Z,10.88
2022-10-12T19:47:10.825Z,10.57
2022-10-12T19:49:43.146Z,10.27
2022-10-12T19:52:13.085Z,10.02
2022-10-12T19:54:42.297Z,11.25
2022-10-12T19:57:10.570Z,10.05
2022-10-12T19:59:38.502Z,9.93
2022-10-12T20:02:06.451Z,10.90
2022-10-12T20:04:34.350Z,10.80
2022-10-12T20:07:02.247Z,10.27
2022-10-12T20:09:30.846Z,10.18
2022-10-12T20:12:00.183Z,10.32
2022-10-12T20:14:29.865Z,9.68
2022-10-12T20:16:57.763Z,10.37
2022-10-12T20:19:25.861Z,9.88
2022-10-12T20:21:53.862Z,9.70
2022-10-12T20:24:22.044Z,9.55
2022-10-12T20:26:50.224Z,10.60
2022-10-12T20:29:19.915Z,9.45
2022-10-12T20:31:48.264Z,9.20
2022-10-12T20:34:16.201Z,9.70
2022-10-12T20:36:44.088Z,9.55
2022-10-12T20:39:12.257Z,9.90
2022-10-12T20:41:40.980Z,9.70
2022-10-12T20:44:10.823Z,9.35
2022-10-12T20:46:40.171Z,9.50
2022-10-12T20:49:08.085Z,10.05
2022-10-12T20:51:39.880Z,9.05
2022-10-12T20:54:09.098Z,10.00
2022-10-12T20:56:41.259Z,8.87
2022-10-12T20:59:09.464Z,10.23
2022-10-12T21:01:38.795Z,9.52
2022-10-12T21:04:06.702Z,9.88
2022-10-12T21:06:36.264Z,9.30
2022-10-12T21:09:04.351Z,8.90
2022-10-12T21:11:33.102Z,9.40
2022-10-12T21:14:00.994Z,9.30
2022-10-12T21:16:28.902Z,8.90
2022-10-12T21:18:58.157Z,8.45
2022-10-12T21:21:26.892Z,8.30
2022-10-12T21:23:56.182Z,8.10
2022-10-12T21:26:26.196Z,7.40
2022-10-12T21:28:54.317Z,8.25
2022-10-12T21:31:26.009Z,8.75
2022-10-12T21:33:57.529Z,8.30
2022-10-12T21:36:27.337Z,8.40
2022-10-12T21:38:56.178Z,7.57
2022-10-12T21:41:26.214Z,7.50
2022-10-12T21:43:54.649Z,7.10
2022-10-12T21:46:25.032Z,8.13
2022-10-12T21:48:54.024Z,7.75
2022-10-12T21:51:24.665Z,7.68
2022-10-12T21:53:53.033Z,7.93
2022-10-12T21:56:23.377Z,7.67
2022-10-12T21:58:52.698Z,7.80
2022-10-12T22:01:22.995Z,7.78
2022-10-12T22:03:54.204Z,7.55
2022-10-12T22:06:24.828Z,7.05
2022-10-12T22:08:54.448Z,7.40
2022-10-12T22:11:22.739Z,7.55
2022-10-12T22:13:50.987Z,7.10
2022-10-12T22:16:20.000Z,7.60
2022-10-12T22:18:47.860Z,8.30
2022-10-12T22:21:17.608Z,7.93
2022-10-12T22:23:47.083Z,7.10
2022-10-12T22:26:17.426Z,8.40
2022-10-12T22:28:45.572Z,7.57
2022-10-12T22:31:15.315Z,7.50
2022-10-12T22:33:43.208Z,7.30
2022-10-12T22:36:12.533Z,7.57
2022-10-12T22:38:40.784Z,8.00
2022-10-12T22:41:12.906Z,8.40
2022-10-12T22:43:41.521Z,8.98
2022-10-12T22:46:09.840Z,8.23
2022-10-12T22:48:38.205Z,8.15
2022-10-12T22:51:07.439Z,8.57
2022-10-12T22:53:35.838Z,7.82
2022-10-12T22:56:06.557Z,8.80
2022-10-12T22:58:36.346Z,7.80
2022-10-12T23:01:05.541Z,8.88
2022-10-12T23:03:34.281Z,8.82
2022-10-12T23:06:02.483Z,8.57
2022-10-12T23:08:30.807Z,9.30
2022-10-12T23:11:04.768Z,9.70
2022-10-12T23:13:33.177Z,8.70
2022-10-12T23:16:08.107Z,8.80
2022-10-12T23:18:36.117Z,8.50
2022-10-12T23:21:06.487Z,8.48
2022-10-12T23:23:35.122Z,8.77
2022-10-12T23:26:05.499Z,8.43
2022-10-12T23:28:33.923Z,9.10
2022-10-12T23:31:05.665Z,9.07
2022-10-12T23:33:34.226Z,9.02
2022-10-12T23:36:04.424Z,8.90
2022-10-12T23:38:33.553Z,8.63
2022-10-12T23:41:01.725Z,9.05
2022-10-12T23:43:30.099Z,9.68
2022-10-12T23:45:58.076Z,8.97
2022-10-12T23:48:27.921Z,8.90
2022-10-12T23:50:56.031Z,9.30
2022-10-12T23:53:25.205Z,9.60
2022-10-12T23:55:53.604Z,9.35
2022-10-12T23:58:22.131Z,9.65
